Destinations Haugesund Airport

Haugesund Airport (ENHD / HAU)

Flights to Haugesund Airport

Flight number From ETE Dispatch
SPY-2518 EGPH Edinburgh Airport 01:30

Flights from Haugesund Airport

Flight number To ETE Dispatch
SPY-2519 EGPH Edinburgh Airport 01:30
About

Haugesund Airport facts

Haugesund Airport is located in Haugesund at an elevation of 26.2 meters or 86 feet.

Currently, Speedy Airlines serves 2 flights to and from Haugesund Airport.

Detailed airport info

Route map

Weather

Current weather

METAR

METAR

Metar data retrieved Sunday, 21 July 2024 at 19:25 UTC

ENHD 211850Z 33010KT 7000 -RA BKN005 OVC008 14/13 Q1008 RESHRA
Wind Temperature Low clouds warning
10 kt 14c Clouds lower than 1000ft and either broken, overcast or vertical visibility